sensor_id;sensor_type;location;lat;lon;timestamp;P1;durP1;ratioP1;P2;durP2;ratioP2
43014;SDS011;28637;50.554;7.032;2022-11-20T00:04:53;26.25;;;11.82;;
43014;SDS011;28637;50.554;7.032;2022-11-20T00:09:53;25.42;;;11.55;;
43014;SDS011;28637;50.554;7.032;2022-11-20T00:14:54;25.83;;;11.90;;
43014;SDS011;28637;50.554;7.032;2022-11-20T00:19:54;27.98;;;12.45;;
43014;SDS011;28637;50.554;7.032;2022-11-20T00:24:55;28.70;;;12.57;;
43014;SDS011;28637;50.554;7.032;2022-11-20T00:29:57;28.55;;;11.55;;
43014;SDS011;28637;50.554;7.032;2022-11-20T00:34:58;26.75;;;11.80;;
43014;SDS011;28637;50.554;7.032;2022-11-20T00:39:59;27.08;;;11.95;;
43014;SDS011;28637;50.554;7.032;2022-11-20T00:44:59;34.50;;;15.68;;
43014;SDS011;28637;50.554;7.032;2022-11-20T00:50:00;37.72;;;15.00;;
43014;SDS011;28637;50.554;7.032;2022-11-20T00:55:00;33.55;;;13.95;;
43014;SDS011;28637;50.554;7.032;2022-11-20T01:00:01;30.98;;;14.48;;
43014;SDS011;28637;50.554;7.032;2022-11-20T01:05:02;33.53;;;14.73;;
43014;SDS011;28637;50.554;7.032;2022-11-20T01:10:03;31.40;;;14.25;;
43014;SDS011;28637;50.554;7.032;2022-11-20T01:15:04;30.42;;;12.93;;
43014;SDS011;28637;50.554;7.032;2022-11-20T01:20:05;40.40;;;16.23;;
43014;SDS011;28637;50.554;7.032;2022-11-20T01:25:06;32.30;;;13.30;;
43014;SDS011;28637;50.554;7.032;2022-11-20T01:30:07;28.67;;;12.52;;
43014;SDS011;28637;50.554;7.032;2022-11-20T01:35:08;33.90;;;14.40;;
43014;SDS011;28637;50.554;7.032;2022-11-20T01:40:10;31.03;;;13.23;;
43014;SDS011;28637;50.554;7.032;2022-11-20T01:50:46;27.70;;;12.23;;
43014;SDS011;28637;50.554;7.032;2022-11-20T01:55:49;30.23;;;13.25;;
43014;SDS011;28637;50.554;7.032;2022-11-20T02:00:53;28.23;;;12.48;;
43014;SDS011;28637;50.554;7.032;2022-11-20T02:11:17;27.98;;;12.57;;
43014;SDS011;28637;50.554;7.032;2022-11-20T02:16:22;28.13;;;12.13;;
43014;SDS011;28637;50.554;7.032;2022-11-20T02:21:35;29.85;;;11.95;;
43014;SDS011;28637;50.554;7.032;2022-11-20T02:27:03;32.88;;;12.45;;
43014;SDS011;28637;50.554;7.032;2022-11-20T02:32:17;30.42;;;12.32;;
43014;SDS011;28637;50.554;7.032;2022-11-20T02:37:22;30.13;;;12.35;;
43014;SDS011;28637;50.554;7.032;2022-11-20T02:42:27;31.83;;;12.85;;
43014;SDS011;28637;50.554;7.032;2022-11-20T02:47:28;34.35;;;13.57;;
43014;SDS011;28637;50.554;7.032;2022-11-20T02:52:29;31.92;;;13.98;;
43014;SDS011;28637;50.554;7.032;2022-11-20T02:57:30;32.67;;;12.73;;
43014;SDS011;28637;50.554;7.032;2022-11-20T03:02:31;30.65;;;12.52;;
43014;SDS011;28637;50.554;7.032;2022-11-20T03:07:32;32.63;;;12.52;;
43014;SDS011;28637;50.554;7.032;2022-11-20T03:12:32;27.13;;;11.38;;
43014;SDS011;28637;50.554;7.032;2022-11-20T03:17:33;28.67;;;12.23;;
43014;SDS011;28637;50.554;7.032;2022-11-20T03:22:34;30.98;;;12.93;;
43014;SDS011;28637;50.554;7.032;2022-11-20T03:27:35;36.20;;;13.07;;
43014;SDS011;28637;50.554;7.032;2022-11-20T03:32:36;32.30;;;13.15;;
43014;SDS011;28637;50.554;7.032;2022-11-20T03:37:36;30.90;;;12.73;;
43014;SDS011;28637;50.554;7.032;2022-11-20T03:42:37;31.02;;;11.48;;
43014;SDS011;28637;50.554;7.032;2022-11-20T03:47:47;32.63;;;12.20;;
43014;SDS011;28637;50.554;7.032;2022-11-20T03:52:47;28.52;;;11.85;;
43014;SDS011;28637;50.554;7.032;2022-11-20T03:57:48;33.70;;;13.67;;
43014;SDS011;28637;50.554;7.032;2022-11-20T04:02:49;32.13;;;12.07;;
43014;SDS011;28637;50.554;7.032;2022-11-20T04:07:49;36.53;;;13.60;;
43014;SDS011;28637;50.554;7.032;2022-11-20T04:12:50;36.17;;;13.87;;
43014;SDS011;28637;50.554;7.032;2022-11-20T04:17:51;35.70;;;14.30;;
43014;SDS011;28637;50.554;7.032;2022-11-20T04:22:53;36.80;;;14.20;;
43014;SDS011;28637;50.554;7.032;2022-11-20T04:27:54;34.78;;;13.32;;
43014;SDS011;28637;50.554;7.032;2022-11-20T04:32:55;35.35;;;13.68;;
43014;SDS011;28637;50.554;7.032;2022-11-20T04:37:55;33.85;;;12.48;;
43014;SDS011;28637;50.554;7.032;2022-11-20T04:42:56;27.45;;;11.68;;
43014;SDS011;28637;50.554;7.032;2022-11-20T04:47:57;41.83;;;11.27;;
43014;SDS011;28637;50.554;7.032;2022-11-20T04:52:57;29.30;;;10.95;;
43014;SDS011;28637;50.554;7.032;2022-11-20T04:57:58;44.10;;;11.88;;
43014;SDS011;28637;50.554;7.032;2022-11-20T05:02:59;31.98;;;11.75;;
43014;SDS011;28637;50.554;7.032;2022-11-20T05:07:59;32.50;;;11.38;;
43014;SDS011;28637;50.554;7.032;2022-11-20T05:13:00;53.78;;;11.93;;
43014;SDS011;28637;50.554;7.032;2022-11-20T05:18:01;33.08;;;12.23;;
43014;SDS011;28637;50.554;7.032;2022-11-20T05:23:02;30.85;;;11.60;;
43014;SDS011;28637;50.554;7.032;2022-11-20T05:28:02;28.20;;;11.17;;
43014;SDS011;28637;50.554;7.032;2022-11-20T05:33:04;27.20;;;11.27;;
43014;SDS011;28637;50.554;7.032;2022-11-20T05:38:04;26.17;;;10.97;;
43014;SDS011;28637;50.554;7.032;2022-11-20T05:43:05;27.90;;;11.57;;
43014;SDS011;28637;50.554;7.032;2022-11-20T05:48:06;26.10;;;10.77;;
43014;SDS011;28637;50.554;7.032;2022-11-20T05:53:06;23.55;;;10.10;;
43014;SDS011;28637;50.554;7.032;2022-11-20T05:58:07;22.98;;;10.07;;
43014;SDS011;28637;50.554;7.032;2022-11-20T06:03:08;22.95;;;9.85;;
43014;SDS011;28637;50.554;7.032;2022-11-20T06:08:08;23.58;;;9.80;;
43014;SDS011;28637;50.554;7.032;2022-11-20T06:13:09;23.23;;;9.68;;
43014;SDS011;28637;50.554;7.032;2022-11-20T06:18:10;22.38;;;10.18;;
43014;SDS011;28637;50.554;7.032;2022-11-20T06:23:10;20.38;;;9.43;;
43014;SDS011;28637;50.554;7.032;2022-11-20T06:28:11;26.90;;;13.68;;
43014;SDS011;28637;50.554;7.032;2022-11-20T06:33:11;27.40;;;13.30;;
43014;SDS011;28637;50.554;7.032;2022-11-20T06:38:12;24.90;;;10.80;;
43014;SDS011;28637;50.554;7.032;2022-11-20T06:43:13;24.20;;;10.65;;
43014;SDS011;28637;50.554;7.032;2022-11-20T06:48:13;24.23;;;11.27;;
43014;SDS011;28637;50.554;7.032;2022-11-20T06:53:14;20.73;;;9.17;;
43014;SDS011;28637;50.554;7.032;2022-11-20T06:58:15;19.80;;;8.48;;
43014;SDS011;28637;50.554;7.032;2022-11-20T07:03:17;24.98;;;9.52;;
43014;SDS011;28637;50.554;7.032;2022-11-20T07:08:18;24.33;;;10.40;;
43014;SDS011;28637;50.554;7.032;2022-11-20T07:13:18;22.57;;;11.00;;
43014;SDS011;28637;50.554;7.032;2022-11-20T07:18:19;24.65;;;10.52;;
43014;SDS011;28637;50.554;7.032;2022-11-20T07:23:20;24.53;;;10.30;;
43014;SDS011;28637;50.554;7.032;2022-11-20T07:28:22;22.75;;;9.90;;
43014;SDS011;28637;50.554;7.032;2022-11-20T07:33:22;21.13;;;10.07;;
43014;SDS011;28637;50.554;7.032;2022-11-20T07:38:23;23.00;;;9.32;;
43014;SDS011;28637;50.554;7.032;2022-11-20T07:43:24;22.00;;;9.73;;
43014;SDS011;28637;50.554;7.032;2022-11-20T07:48:25;25.63;;;10.52;;
43014;SDS011;28637;50.554;7.032;2022-11-20T07:53:26;28.50;;;10.95;;
43014;SDS011;28637;50.554;7.032;2022-11-20T07:58:27;29.85;;;11.45;;
43014;SDS011;28637;50.554;7.032;2022-11-20T08:03:29;38.10;;;12.73;;
43014;SDS011;28637;50.554;7.032;2022-11-20T08:08:29;33.85;;;12.10;;
43014;SDS011;28637;50.554;7.032;2022-11-20T08:13:30;35.13;;;12.98;;
43014;SDS011;28637;50.554;7.032;2022-11-20T08:18:49;45.17;;;18.63;;
43014;SDS011;28637;50.554;7.032;2022-11-20T08:23:50;79.75;;;32.20;;
43014;SDS011;28637;50.554;7.032;2022-11-20T08:28:57;64.95;;;29.17;;
43014;SDS011;28637;50.554;7.032;2022-11-20T08:33:58;34.95;;;13.70;;
43014;SDS011;28637;50.554;7.032;2022-11-20T08:38:59;56.22;;;25.42;;
43014;SDS011;28637;50.554;7.032;2022-11-20T08:44:00;40.60;;;16.23;;
43014;SDS011;28637;50.554;7.032;2022-11-20T08:49:10;39.83;;;16.83;;
43014;SDS011;28637;50.554;7.032;2022-11-20T08:54:11;36.10;;;15.48;;
43014;SDS011;28637;50.554;7.032;2022-11-20T08:59:13;37.80;;;13.40;;
43014;SDS011;28637;50.554;7.032;2022-11-20T09:04:14;33.65;;;13.00;;
43014;SDS011;28637;50.554;7.032;2022-11-20T09:09:15;35.70;;;13.97;;
43014;SDS011;28637;50.554;7.032;2022-11-20T09:14:16;32.10;;;12.43;;
43014;SDS011;28637;50.554;7.032;2022-11-20T09:19:16;33.78;;;14.05;;
43014;SDS011;28637;50.554;7.032;2022-11-20T09:29:40;37.58;;;14.00;;
43014;SDS011;28637;50.554;7.032;2022-11-20T09:34:41;35.60;;;14.25;;
43014;SDS011;28637;50.554;7.032;2022-11-20T09:39:41;34.92;;;14.95;;
43014;SDS011;28637;50.554;7.032;2022-11-20T09:55:36;33.55;;;13.20;;
43014;SDS011;28637;50.554;7.032;2022-11-20T10:00:37;32.00;;;13.25;;
43014;SDS011;28637;50.554;7.032;2022-11-20T10:05:40;30.30;;;12.63;;
43014;SDS011;28637;50.554;7.032;2022-11-20T10:11:13;32.08;;;13.27;;
43014;SDS011;28637;50.554;7.032;2022-11-20T10:33:19;31.40;;;12.93;;
43014;SDS011;28637;50.554;7.032;2022-11-20T10:38:28;25.38;;;11.40;;
43014;SDS011;28637;50.554;7.032;2022-11-20T10:43:40;24.48;;;10.82;;
43014;SDS011;28637;50.554;7.032;2022-11-20T10:48:41;30.02;;;11.50;;
43014;SDS011;28637;50.554;7.032;2022-11-20T11:04:51;28.13;;;12.65;;
43014;SDS011;28637;50.554;7.032;2022-11-20T11:09:53;27.25;;;12.27;;
43014;SDS011;28637;50.554;7.032;2022-11-20T11:14:56;28.02;;;12.38;;
43014;SDS011;28637;50.554;7.032;2022-11-20T11:19:58;26.75;;;11.75;;
43014;SDS011;28637;50.554;7.032;2022-11-20T11:25:00;24.35;;;11.00;;
43014;SDS011;28637;50.554;7.032;2022-11-20T11:30:03;26.80;;;11.73;;
43014;SDS011;28637;50.554;7.032;2022-11-20T11:40:20;29.58;;;11.55;;
43014;SDS011;28637;50.554;7.032;2022-11-20T11:45:22;29.08;;;11.70;;
43014;SDS011;28637;50.554;7.032;2022-11-20T11:50:24;28.13;;;11.93;;
43014;SDS011;28637;50.554;7.032;2022-11-20T11:55:41;25.13;;;11.65;;
43014;SDS011;28637;50.554;7.032;2022-11-20T12:00:53;28.27;;;11.43;;
43014;SDS011;28637;50.554;7.032;2022-11-20T12:05:59;25.70;;;10.82;;
43014;SDS011;28637;50.554;7.032;2022-11-20T12:11:09;22.92;;;10.23;;
43014;SDS011;28637;50.554;7.032;2022-11-20T12:16:23;27.10;;;12.55;;
43014;SDS011;28637;50.554;7.032;2022-11-20T12:21:28;26.35;;;12.48;;
43014;SDS011;28637;50.554;7.032;2022-11-20T12:26:44;25.95;;;11.57;;
43014;SDS011;28637;50.554;7.032;2022-11-20T12:37:24;24.20;;;10.82;;
43014;SDS011;28637;50.554;7.032;2022-11-20T12:42:52;25.13;;;11.20;;
43014;SDS011;28637;50.554;7.032;2022-11-20T12:53:33;24.90;;;11.13;;
43014;SDS011;28637;50.554;7.032;2022-11-20T13:04:12;22.30;;;10.88;;
43014;SDS011;28637;50.554;7.032;2022-11-20T13:09:22;22.85;;;11.05;;
43014;SDS011;28637;50.554;7.032;2022-11-20T13:14:31;37.92;;;15.13;;
43014;SDS011;28637;50.554;7.032;2022-11-20T13:19:52;34.08;;;13.75;;
43014;SDS011;28637;50.554;7.032;2022-11-20T13:24:54;24.13;;;10.60;;
43014;SDS011;28637;50.554;7.032;2022-11-20T13:30:11;22.17;;;11.13;;
43014;SDS011;28637;50.554;7.032;2022-11-20T13:35:23;22.50;;;10.32;;
43014;SDS011;28637;50.554;7.032;2022-11-20T13:40:26;20.23;;;10.45;;
43014;SDS011;28637;50.554;7.032;2022-11-20T13:45:28;21.90;;;11.15;;
43014;SDS011;28637;50.554;7.032;2022-11-20T13:55:40;18.83;;;9.60;;
43014;SDS011;28637;50.554;7.032;2022-11-20T14:05:55;12.13;;;6.28;;
43014;SDS011;28637;50.554;7.032;2022-11-20T14:11:16;14.32;;;7.00;;
43014;SDS011;28637;50.554;7.032;2022-11-20T14:16:20;12.30;;;5.68;;
43014;SDS011;28637;50.554;7.032;2022-11-20T14:21:26;12.63;;;5.35;;
43014;SDS011;28637;50.554;7.032;2022-11-20T14:26:29;6.25;;;3.03;;
43014;SDS011;28637;50.554;7.032;2022-11-20T14:31:30;5.43;;;2.07;;
43014;SDS011;28637;50.554;7.032;2022-11-20T14:36:32;3.13;;;1.73;;
43014;SDS011;28637;50.554;7.032;2022-11-20T14:41:32;3.23;;;1.30;;
43014;SDS011;28637;50.554;7.032;2022-11-20T14:46:33;4.97;;;1.67;;
43014;SDS011;28637;50.554;7.032;2022-11-20T14:51:38;5.57;;;1.60;;
43014;SDS011;28637;50.554;7.032;2022-11-20T14:56:54;2.80;;;1.50;;
43014;SDS011;28637;50.554;7.032;2022-11-20T15:02:05;3.92;;;1.05;;
43014;SDS011;28637;50.554;7.032;2022-11-20T15:07:10;2.05;;;0.80;;
43014;SDS011;28637;50.554;7.032;2022-11-20T15:12:15;3.17;;;1.10;;
43014;SDS011;28637;50.554;7.032;2022-11-20T15:17:18;4.18;;;0.90;;
43014;SDS011;28637;50.554;7.032;2022-11-20T15:22:18;1.52;;;0.95;;
43014;SDS011;28637;50.554;7.032;2022-11-20T15:27:19;3.75;;;1.15;;
43014;SDS011;28637;50.554;7.032;2022-11-20T15:32:20;3.22;;;1.27;;
43014;SDS011;28637;50.554;7.032;2022-11-20T15:42:23;7.17;;;3.20;;
43014;SDS011;28637;50.554;7.032;2022-11-20T15:47:25;3.78;;;2.90;;
43014;SDS011;28637;50.554;7.032;2022-11-20T15:52:29;4.32;;;2.72;;
43014;SDS011;28637;50.554;7.032;2022-11-20T15:57:30;3.53;;;2.20;;
43014;SDS011;28637;50.554;7.032;2022-11-20T16:02:31;4.22;;;3.00;;
43014;SDS011;28637;50.554;7.032;2022-11-20T16:07:31;4.60;;;2.47;;
43014;SDS011;28637;50.554;7.032;2022-11-20T16:12:32;5.55;;;2.40;;
43014;SDS011;28637;50.554;7.032;2022-11-20T16:17:52;4.65;;;2.95;;
43014;SDS011;28637;50.554;7.032;2022-11-20T16:22:52;2.78;;;2.10;;
43014;SDS011;28637;50.554;7.032;2022-11-20T16:27:53;3.70;;;2.00;;
43014;SDS011;28637;50.554;7.032;2022-11-20T16:32:54;3.13;;;1.40;;
43014;SDS011;28637;50.554;7.032;2022-11-20T16:37:55;1.85;;;1.25;;
43014;SDS011;28637;50.554;7.032;2022-11-20T16:42:57;2.97;;;1.15;;
43014;SDS011;28637;50.554;7.032;2022-11-20T16:48:06;4.25;;;1.23;;
43014;SDS011;28637;50.554;7.032;2022-11-20T16:53:06;3.63;;;1.33;;
43014;SDS011;28637;50.554;7.032;2022-11-20T16:58:08;2.13;;;1.30;;
43014;SDS011;28637;50.554;7.032;2022-11-20T17:03:09;2.17;;;1.20;;
43014;SDS011;28637;50.554;7.032;2022-11-20T17:08:12;2.20;;;1.20;;
43014;SDS011;28637;50.554;7.032;2022-11-20T17:13:13;2.63;;;1.10;;
43014;SDS011;28637;50.554;7.032;2022-11-20T17:18:13;1.20;;;1.10;;
43014;SDS011;28637;50.554;7.032;2022-11-20T17:23:14;1.00;;;0.90;;
43014;SDS011;28637;50.554;7.032;2022-11-20T17:28:15;1.73;;;1.02;;
43014;SDS011;28637;50.554;7.032;2022-11-20T17:33:15;0.82;;;0.80;;
43014;SDS011;28637;50.554;7.032;2022-11-20T17:38:16;1.63;;;0.88;;
43014;SDS011;28637;50.554;7.032;2022-11-20T17:43:17;0.60;;;0.57;;
43014;SDS011;28637;50.554;7.032;2022-11-20T17:48:18;2.03;;;0.70;;
43014;SDS011;28637;50.554;7.032;2022-11-20T17:53:18;0.88;;;0.68;;
43014;SDS011;28637;50.554;7.032;2022-11-20T17:58:20;0.90;;;0.60;;
43014;SDS011;28637;50.554;7.032;2022-11-20T18:03:23;0.65;;;0.35;;
43014;SDS011;28637;50.554;7.032;2022-11-20T18:08:26;0.60;;;0.50;;
43014;SDS011;28637;50.554;7.032;2022-11-20T18:13:27;0.77;;;0.40;;
43014;SDS011;28637;50.554;7.032;2022-11-20T18:18:47;0.70;;;0.40;;
43014;SDS011;28637;50.554;7.032;2022-11-20T18:23:48;0.45;;;0.45;;
43014;SDS011;28637;50.554;7.032;2022-11-20T18:28:49;0.40;;;0.40;;
43014;SDS011;28637;50.554;7.032;2022-11-20T18:33:50;0.55;;;0.40;;
43014;SDS011;28637;50.554;7.032;2022-11-20T18:38:54;0.55;;;0.22;;
43014;SDS011;28637;50.554;7.032;2022-11-20T18:43:56;1.38;;;0.60;;
43014;SDS011;28637;50.554;7.032;2022-11-20T18:49:16;1.00;;;0.63;;
43014;SDS011;28637;50.554;7.032;2022-11-20T18:54:17;1.77;;;0.70;;
43014;SDS011;28637;50.554;7.032;2022-11-20T18:59:18;0.83;;;0.70;;
43014;SDS011;28637;50.554;7.032;2022-11-20T19:09:22;1.33;;;1.00;;
43014;SDS011;28637;50.554;7.032;2022-11-20T19:14:22;6.73;;;1.83;;
43014;SDS011;28637;50.554;7.032;2022-11-20T19:19:23;4.25;;;1.30;;
43014;SDS011;28637;50.554;7.032;2022-11-20T19:24:24;3.95;;;1.20;;
43014;SDS011;28637;50.554;7.032;2022-11-20T19:29:27;3.38;;;1.60;;
43014;SDS011;28637;50.554;7.032;2022-11-20T19:34:28;4.10;;;1.30;;
43014;SDS011;28637;50.554;7.032;2022-11-20T19:39:29;6.00;;;1.60;;
43014;SDS011;28637;50.554;7.032;2022-11-20T19:44:30;5.82;;;1.73;;
43014;SDS011;28637;50.554;7.032;2022-11-20T19:49:31;6.32;;;2.03;;
43014;SDS011;28637;50.554;7.032;2022-11-20T19:54:32;7.63;;;1.80;;
43014;SDS011;28637;50.554;7.032;2022-11-20T19:59:33;7.47;;;1.70;;
43014;SDS011;28637;50.554;7.032;2022-11-20T20:04:34;7.45;;;1.63;;
43014;SDS011;28637;50.554;7.032;2022-11-20T20:09:34;5.57;;;1.60;;
43014;SDS011;28637;50.554;7.032;2022-11-20T20:14:35;6.90;;;1.92;;
43014;SDS011;28637;50.554;7.032;2022-11-20T20:19:36;8.18;;;1.75;;
43014;SDS011;28637;50.554;7.032;2022-11-20T20:24:36;9.13;;;2.20;;
43014;SDS011;28637;50.554;7.032;2022-11-20T20:29:37;6.20;;;1.60;;
43014;SDS011;28637;50.554;7.032;2022-11-20T20:34:37;5.30;;;1.65;;
43014;SDS011;28637;50.554;7.032;2022-11-20T20:39:38;4.40;;;1.98;;
43014;SDS011;28637;50.554;7.032;2022-11-20T20:44:39;5.72;;;1.90;;
43014;SDS011;28637;50.554;7.032;2022-11-20T20:49:59;3.13;;;1.48;;
43014;SDS011;28637;50.554;7.032;2022-11-20T20:55:00;8.20;;;1.77;;
43014;SDS011;28637;50.554;7.032;2022-11-20T21:00:02;4.27;;;1.20;;
43014;SDS011;28637;50.554;7.032;2022-11-20T21:05:04;43.25;;;14.90;;
43014;SDS011;28637;50.554;7.032;2022-11-20T21:10:05;10.68;;;3.80;;
43014;SDS011;28637;50.554;7.032;2022-11-20T21:15:06;34.40;;;10.17;;
43014;SDS011;28637;50.554;7.032;2022-11-20T21:20:07;7.32;;;1.48;;
43014;SDS011;28637;50.554;7.032;2022-11-20T21:25:28;4.77;;;1.30;;
43014;SDS011;28637;50.554;7.032;2022-11-20T21:30:29;6.60;;;1.50;;
43014;SDS011;28637;50.554;7.032;2022-11-20T21:35:32;4.78;;;1.17;;
43014;SDS011;28637;50.554;7.032;2022-11-20T21:40:33;5.13;;;1.60;;
43014;SDS011;28637;50.554;7.032;2022-11-20T21:45:34;3.13;;;1.33;;
43014;SDS011;28637;50.554;7.032;2022-11-20T21:50:34;6.90;;;1.20;;
43014;SDS011;28637;50.554;7.032;2022-11-20T21:55:35;3.42;;;1.05;;
43014;SDS011;28637;50.554;7.032;2022-11-20T22:00:36;6.70;;;1.30;;
43014;SDS011;28637;50.554;7.032;2022-11-20T22:05:37;6.47;;;1.67;;
43014;SDS011;28637;50.554;7.032;2022-11-20T22:10:37;6.50;;;1.20;;
43014;SDS011;28637;50.554;7.032;2022-11-20T22:15:38;5.78;;;1.27;;
43014;SDS011;28637;50.554;7.032;2022-11-20T22:20:39;8.80;;;1.93;;
43014;SDS011;28637;50.554;7.032;2022-11-20T22:25:40;7.10;;;1.77;;
43014;SDS011;28637;50.554;7.032;2022-11-20T22:30:41;5.90;;;1.60;;
43014;SDS011;28637;50.554;7.032;2022-11-20T22:35:41;6.13;;;1.52;;
43014;SDS011;28637;50.554;7.032;2022-11-20T22:40:42;7.03;;;1.77;;
43014;SDS011;28637;50.554;7.032;2022-11-20T22:45:43;7.43;;;2.05;;
43014;SDS011;28637;50.554;7.032;2022-11-20T22:50:45;8.63;;;2.17;;
43014;SDS011;28637;50.554;7.032;2022-11-20T22:55:48;8.05;;;1.75;;
43014;SDS011;28637;50.554;7.032;2022-11-20T23:00:48;7.70;;;1.70;;
43014;SDS011;28637;50.554;7.032;2022-11-20T23:05:49;11.33;;;1.97;;
43014;SDS011;28637;50.554;7.032;2022-11-20T23:10:50;8.87;;;2.00;;
43014;SDS011;28637;50.554;7.032;2022-11-20T23:15:51;6.78;;;2.28;;
43014;SDS011;28637;50.554;7.032;2022-11-20T23:20:51;10.27;;;2.42;;
43014;SDS011;28637;50.554;7.032;2022-11-20T23:25:53;6.55;;;1.70;;
43014;SDS011;28637;50.554;7.032;2022-11-20T23:30:54;7.32;;;2.00;;
43014;SDS011;28637;50.554;7.032;2022-11-20T23:35:55;6.07;;;1.90;;
43014;SDS011;28637;50.554;7.032;2022-11-20T23:40:56;7.70;;;2.00;;
43014;SDS011;28637;50.554;7.032;2022-11-20T23:45:57;6.10;;;1.60;;
43014;SDS011;28637;50.554;7.032;2022-11-20T23:51:00;10.40;;;1.90;;
43014;SDS011;28637;50.554;7.032;2022-11-20T23:56:01;4.78;;;1.50;;
